Time;durP1;ratioP1;P1;durP2;ratioP2;P2;SDS_P1;SDS_P2;PMS_P1;PMS_P2;Temp;Humidity;BMP_temperature;BMP_pressure;BME280_temperature;BME280_humidity;BME280_pressure;Samples;Min_cycle;Max_cycle;Signal;HPM_P1;HPM_P2
2022/08/21 00:01:59;;;;;;;;;;;14.40;99.90;;;;;;5051027;28;20040;-73
2022/08/21 00:04:25;;;;;;;0.32;0.32;;;14.40;99.90;;;;;;5026131;28;19964;-76
2022/08/21 00:06:51;;;;;;;;;;;14.40;99.90;;;;;;5050715;28;20049;-76
2022/08/21 00:09:18;;;;;;;0.40;0.40;;;14.30;99.90;;;;;;5049732;28;20389;-75
2022/08/21 00:11:43;;;;;;;0.32;0.32;;;14.30;99.90;;;;;;5049550;28;20681;-75
2022/08/21 00:14:10;;;;;;;0.30;0.30;;;14.20;99.90;;;;;;5049886;28;20095;-76
2022/08/21 00:16:36;;;;;;;0.30;0.30;;;14.20;99.90;;;;;;5048312;28;20056;-73
2022/08/21 00:19:03;;;;;;;;;;;14.20;99.90;;;;;;5050949;28;20482;-74
2022/08/21 00:21:29;;;;;;;0.30;0.30;;;14.10;99.90;;;;;;5047865;28;20042;-75
2022/08/21 00:23:54;;;;;;;0.30;0.30;;;14.10;99.90;;;;;;5047313;28;20068;-76
2022/08/21 00:26:20;;;;;;;0.40;0.40;;;14.00;99.90;;;;;;5048021;28;20091;-77
2022/08/21 00:28:48;;;;;;;0.30;0.30;;;14.00;99.90;;;;;;5032621;28;20048;-76
2022/08/21 00:31:15;;;;;;;0.40;0.40;;;14.00;99.90;;;;;;5048056;28;20039;-73
2022/08/21 00:33:41;;;;;;;0.40;0.40;;;13.90;99.90;;;;;;5047682;28;20068;-76
2022/08/21 00:36:07;;;;;;;0.32;0.32;;;13.90;99.90;;;;;;5048698;28;20498;-73
2022/08/21 00:38:33;;;;;;;;;;;13.90;99.90;;;;;;5033259;28;20069;-75
2022/08/21 00:41:02;;;;;;;0.30;0.30;;;13.90;99.90;;;;;;5056926;28;19931;-78
2022/08/21 00:43:31;;;;;;;0.40;0.40;;;13.90;99.90;;;;;;5047208;28;20120;-75
2022/08/21 00:46:00;;;;;;;0.40;0.40;;;13.80;99.90;;;;;;5043785;28;20497;-74
2022/08/21 00:48:25;;;;;;;0.73;0.73;;;13.80;99.90;;;;;;5063180;28;20087;-74
2022/08/21 00:50:57;;;;;;;0.20;0.20;;;13.80;99.90;;;;;;5053969;28;20072;-75
2022/08/21 00:53:24;;;;;;;0.47;0.47;;;13.70;99.90;;;;;;5051831;28;20513;-75
2022/08/21 00:55:51;;;;;;;0.40;0.40;;;13.70;99.90;;;;;;5057732;28;20355;-79
2022/08/21 00:58:17;;;;;;;0.50;0.50;;;13.80;99.90;;;;;;5048200;28;20048;-75
2022/08/21 01:00:44;;;;;;;;;;;13.70;99.90;;;;;;5043951;28;20386;-75
2022/08/21 01:03:14;;;;;;;0.30;0.30;;;13.70;99.90;;;;;;5032982;28;19925;-80
2022/08/21 01:05:40;;;;;;;0.40;0.40;;;13.80;99.90;;;;;;5049186;28;20048;-73
2022/08/21 01:08:07;;;;;;;0.30;0.30;;;13.70;99.90;;;;;;5049871;28;20067;-77
2022/08/21 01:10:35;;;;;;;0.28;0.28;;;13.70;99.90;;;;;;5068968;28;20050;-74
2022/08/21 01:13:01;;;;;;;0.30;0.30;;;13.70;99.90;;;;;;5051842;28;20105;-74
2022/08/21 01:15:37;;;;;;;0.75;0.75;;;13.70;99.90;;;;;;5057594;28;20048;-75
2022/08/21 01:18:06;;;;;;;0.40;0.40;;;13.60;99.90;;;;;;5065513;28;20366;-75
2022/08/21 01:20:33;;;;;;;0.30;0.30;;;13.60;99.90;;;;;;5047412;28;20114;-76
2022/08/21 01:23:02;;;;;;;0.32;0.32;;;13.50;99.90;;;;;;5052306;28;20156;-73
2022/08/21 01:25:28;;;;;;;0.30;0.30;;;13.50;99.90;;;;;;5043331;28;20045;-73
2022/08/21 01:27:54;;;;;;;0.40;0.40;;;13.40;99.90;;;;;;5044665;28;20037;-72
2022/08/21 01:30:24;;;;;;;0.40;0.40;;;13.40;99.90;;;;;;5060687;28;20044;-75
2022/08/21 01:32:51;;;;;;;0.40;0.40;;;13.40;99.90;;;;;;5054676;28;20044;-75
2022/08/21 01:35:17;;;;;;;0.35;0.35;;;13.30;99.90;;;;;;5048709;28;20124;-76
2022/08/21 01:37:43;;;;;;;0.40;0.40;;;13.30;99.90;;;;;;5051682;28;20521;-72
2022/08/21 01:40:11;;;;;;;0.43;0.43;;;13.30;99.90;;;;;;5025288;28;20071;-75
2022/08/21 01:42:37;;;;;;;0.40;0.40;;;13.20;99.90;;;;;;5051732;28;20079;-74
2022/08/21 01:45:05;;;;;;;0.30;0.30;;;13.20;99.90;;;;;;5052411;28;20047;-77
2022/08/21 01:47:30;;;;;;;0.40;0.40;;;13.20;99.90;;;;;;5043536;28;20092;-75
2022/08/21 01:49:56;;;;;;;0.50;0.50;;;13.30;99.90;;;;;;5051565;28;20029;-74
2022/08/21 01:52:22;;;;;;;0.32;0.32;;;13.20;99.90;;;;;;5065647;28;20041;-74
2022/08/21 01:54:48;;;;;;;0.28;0.28;;;13.30;99.90;;;;;;5049757;28;20037;-73
2022/08/21 01:57:14;;;;;;;0.50;0.50;;;13.30;99.90;;;;;;5051246;28;20413;-74
2022/08/21 01:59:40;;;;;;;0.30;0.30;;;13.40;99.90;;;;;;5052200;28;20387;-76
2022/08/21 02:02:06;;;;;;;0.30;0.30;;;13.50;99.90;;;;;;5038156;28;20044;-74
2022/08/21 02:04:32;;;;;;;;;;;13.50;99.90;;;;;;5051622;28;20076;-73
2022/08/21 02:06:59;;;;;;;0.30;0.30;;;13.50;99.90;;;;;;5055317;28;19928;-73
2022/08/21 02:09:25;;;;;;;0.40;0.40;;;13.50;99.90;;;;;;5060988;28;20406;-74
2022/08/21 02:11:51;;;;;;;0.30;0.30;;;13.60;99.90;;;;;;5064877;28;20041;-74
2022/08/21 02:14:17;;;;;;;;;;;13.60;99.90;;;;;;5064926;28;20374;-75
2022/08/21 02:16:44;;;;;;;0.35;0.35;;;13.60;99.90;;;;;;5051923;28;19917;-76
2022/08/21 02:19:12;;;;;;;0.30;0.30;;;13.60;99.90;;;;;;5051795;28;20036;-72
2022/08/21 02:21:39;;;;;;;0.40;0.40;;;13.70;99.90;;;;;;5063338;28;20345;-74
2022/08/21 02:24:04;;;;;;;;;;;13.70;99.90;;;;;;5050977;28;20045;-77
2022/08/21 02:26:30;;;;;;;0.57;0.57;;;13.80;99.90;;;;;;5053596;28;20042;-77
2022/08/21 02:28:55;;;;;;;0.60;0.60;;;13.80;99.90;;;;;;5064119;28;20037;-76
2022/08/21 02:31:21;;;;;;;0.30;0.30;;;13.80;99.90;;;;;;5058306;28;20050;-78
2022/08/21 02:33:47;;;;;;;0.40;0.40;;;13.80;99.90;;;;;;5062833;28;20079;-74
2022/08/21 02:36:14;;;;;;;0.30;0.30;;;13.80;99.90;;;;;;5061771;28;20127;-73
2022/08/21 02:38:43;;;;;;;0.40;0.40;;;13.80;99.90;;;;;;5047641;28;20099;-78
2022/08/21 02:41:16;;;;;;;0.30;0.30;;;13.80;99.90;;;;;;5034374;28;20041;-76
2022/08/21 02:43:42;;;;;;;0.30;0.30;;;13.90;99.90;;;;;;5051409;28;20483;-73
2022/08/21 02:46:10;;;;;;;0.55;0.55;;;13.90;99.90;;;;;;5051408;28;20048;-75
2022/08/21 02:48:36;;;;;;;0.50;0.50;;;14.00;99.90;;;;;;5049812;28;20041;-76
2022/08/21 02:51:04;;;;;;;0.47;0.47;;;14.00;99.90;;;;;;5050019;28;20205;-77
2022/08/21 02:53:31;;;;;;;0.30;0.30;;;14.00;99.90;;;;;;5052202;28;20043;-76
2022/08/21 02:56:00;;;;;;;0.80;0.80;;;14.10;99.90;;;;;;5055022;28;20112;-78
2022/08/21 02:58:32;;;;;;;0.30;0.30;;;14.10;99.90;;;;;;5049955;28;20055;-79
2022/08/21 03:00:59;;;;;;;0.47;0.40;;;14.20;99.90;;;;;;5049999;28;20036;-77
2022/08/21 03:03:25;;;;;;;;;;;14.20;99.90;;;;;;5055811;28;20491;-75
2022/08/21 03:05:51;;;;;;;0.30;0.30;;;14.10;99.90;;;;;;5071095;28;20480;-75
2022/08/21 03:08:18;;;;;;;;;;;14.20;99.90;;;;;;5053730;28;20072;-75
2022/08/21 03:10:47;;;;;;;0.40;0.40;;;14.20;99.90;;;;;;5038364;28;19947;-73
2022/08/21 03:13:13;;;;;;;0.45;0.45;;;14.30;99.90;;;;;;5047496;28;20041;-72
2022/08/21 03:15:39;;;;;;;0.35;0.35;;;14.30;99.90;;;;;;5051129;28;20435;-75
2022/08/21 03:18:06;;;;;;;;;;;14.30;99.90;;;;;;5046976;28;20102;-76
2022/08/21 03:20:32;;;;;;;1.02;1.00;;;14.30;99.90;;;;;;5050690;28;20003;-76
2022/08/21 03:22:58;;;;;;;;;;;14.40;99.90;;;;;;5034423;28;20493;-78
2022/08/21 03:25:27;;;;;;;0.30;0.30;;;14.40;99.90;;;;;;5046743;28;19955;-74
2022/08/21 03:27:52;;;;;;;0.50;0.50;;;14.40;99.90;;;;;;5048479;28;20052;-75
2022/08/21 03:30:20;;;;;;;0.25;0.25;;;14.40;99.90;;;;;;5049695;28;20049;-77
2022/08/21 03:32:47;;;;;;;0.22;0.22;;;14.40;99.90;;;;;;5062306;28;20166;-76
2022/08/21 03:35:13;;;;;;;0.57;0.50;;;14.40;99.90;;;;;;5051470;28;20482;-75
2022/08/21 03:37:40;;;;;;;0.30;0.30;;;14.40;99.90;;;;;;5066638;28;20066;-76
2022/08/21 03:40:06;;;;;;;;;;;14.40;99.90;;;;;;5058826;28;20084;-75
2022/08/21 03:42:32;;;;;;;0.30;0.30;;;14.40;99.90;;;;;;5067889;28;19917;-77
2022/08/21 03:44:58;;;;;;;0.30;0.30;;;14.30;99.90;;;;;;5056333;28;20060;-75
2022/08/21 03:47:24;;;;;;;0.30;0.30;;;14.30;99.90;;;;;;5070478;28;20045;-79
2022/08/21 03:49:50;;;;;;;1.48;1.38;;;14.30;99.90;;;;;;5048306;28;20049;-76
2022/08/21 03:52:16;;;;;;;0.30;0.30;;;14.30;99.90;;;;;;5048712;28;20505;-73
2022/08/21 03:54:43;;;;;;;0.30;0.30;;;14.20;99.90;;;;;;5049911;28;20078;-78
2022/08/21 03:57:09;;;;;;;0.30;0.30;;;14.20;99.90;;;;;;5059969;28;20108;-76
2022/08/21 03:59:36;;;;;;;0.22;0.22;;;14.20;99.90;;;;;;5037870;28;20056;-77
2022/08/21 04:02:05;;;;;;;0.40;0.40;;;14.20;99.90;;;;;;5041274;28;20131;-75
2022/08/21 04:04:31;;;;;;;0.50;0.50;;;14.20;99.90;;;;;;5050583;28;20568;-74
2022/08/21 04:06:57;;;;;;;0.50;0.50;;;14.20;99.90;;;;;;5063776;28;20037;-76
2022/08/21 04:09:24;;;;;;;0.30;0.30;;;14.20;99.90;;;;;;5048951;28;20052;-74
2022/08/21 04:11:50;;;;;;;0.40;0.40;;;14.20;99.90;;;;;;5049074;28;20486;-80
2022/08/21 04:14:16;;;;;;;0.28;0.28;;;14.30;99.90;;;;;;5048788;28;20032;-76
2022/08/21 04:16:42;;;;;;;0.30;0.30;;;14.20;99.90;;;;;;5048396;28;20053;-79
2022/08/21 04:19:09;;;;;;;0.25;0.25;;;14.30;99.90;;;;;;5048334;28;20405;-78
2022/08/21 04:21:38;;;;;;;0.77;0.77;;;14.30;99.90;;;;;;5068228;28;20054;-74
2022/08/21 04:24:05;;;;;;;0.32;0.32;;;14.20;99.90;;;;;;5032172;28;20068;-79
2022/08/21 04:26:31;;;;;;;0.32;0.32;;;14.20;99.90;;;;;;5061172;28;20045;-75
2022/08/21 04:28:57;;;;;;;0.30;0.30;;;14.20;99.90;;;;;;5053231;28;20132;-75
2022/08/21 04:31:28;;;;;;;0.28;0.28;;;14.30;99.90;;;;;;5054677;28;20343;-78
2022/08/21 04:33:54;;;;;;;0.30;0.30;;;14.30;99.90;;;;;;5064524;28;20045;-75
2022/08/21 04:36:20;;;;;;;0.30;0.30;;;14.30;99.90;;;;;;5047330;28;20048;-76
2022/08/21 04:38:47;;;;;;;0.28;0.28;;;14.30;99.90;;;;;;5045828;28;20095;-75
2022/08/21 04:41:13;;;;;;;0.40;0.40;;;14.30;99.90;;;;;;5030956;28;20486;-72
2022/08/21 04:43:39;;;;;;;0.85;0.85;;;14.40;99.90;;;;;;5050601;28;20044;-79
2022/08/21 04:46:05;;;;;;;0.28;0.28;;;14.40;99.90;;;;;;5069083;28;20056;-78
2022/08/21 04:48:32;;;;;;;1.02;1.02;;;14.50;99.90;;;;;;5054649;28;20091;-76
2022/08/21 04:51:23;;;;;;;0.30;0.30;;;14.50;99.90;;;;;;5045647;28;20037;-77
2022/08/21 04:53:53;;;;;;;0.40;0.40;;;14.50;99.90;;;;;;5047369;28;20049;-76
2022/08/21 04:56:37;;;;;;;0.60;0.60;;;14.60;99.90;;;;;;5028222;28;20033;-80
2022/08/21 04:59:12;;;;;;;0.47;0.47;;;14.70;99.90;;;;;;5048836;28;20075;-74
2022/08/21 05:01:40;;;;;;;1.60;1.50;;;14.80;99.90;;;;;;5050845;28;20102;-77
2022/08/21 05:04:09;;;;;;;0.30;0.30;;;14.90;99.90;;;;;;5056336;28;20044;-75
2022/08/21 05:06:37;;;;;;;0.43;0.43;;;15.00;99.90;;;;;;5068150;28;20047;-73
2022/08/21 05:09:04;;;;;;;0.40;0.40;;;15.00;99.90;;;;;;5043541;28;20036;-76
2022/08/21 05:11:31;;;;;;;0.20;0.20;;;15.00;99.90;;;;;;5051503;28;20130;-74
2022/08/21 05:13:57;;;;;;;0.63;0.63;;;15.00;99.90;;;;;;5057669;28;20037;-75
2022/08/21 05:16:23;;;;;;;0.30;0.30;;;15.00;99.90;;;;;;5045999;28;20397;-76
2022/08/21 05:18:48;;;;;;;0.30;0.30;;;15.10;99.90;;;;;;5051629;28;20097;-74
2022/08/21 05:21:14;;;;;;;0.98;0.45;;;15.10;99.90;;;;;;5015719;28;20406;-79
2022/08/21 05:23:40;;;;;;;0.30;0.30;;;15.10;99.90;;;;;;5060177;28;20394;-77
2022/08/21 05:26:05;;;;;;;;;;;15.20;99.90;;;;;;5023250;28;20057;-75
2022/08/21 05:28:31;;;;;;;1.05;1.05;;;15.20;99.90;;;;;;5045437;28;20116;-81
2022/08/21 05:30:58;;;;;;;2.20;0.82;;;15.20;99.90;;;;;;5055634;28;20032;-77
2022/08/21 05:33:23;;;;;;;0.30;0.30;;;15.30;99.90;;;;;;5060663;28;20116;-76
2022/08/21 05:35:57;;;;;;;1.30;0.90;;;15.30;99.90;;;;;;5053938;28;20132;-80
2022/08/21 05:38:28;;;;;;;0.32;0.32;;;15.40;99.90;;;;;;5052400;28;20576;-79
2022/08/21 05:40:54;;;;;;;0.82;0.80;;;15.40;99.90;;;;;;5066800;28;20110;-77
2022/08/21 05:43:20;;;;;;;0.30;0.30;;;15.50;99.90;;;;;;5065429;28;20043;-81
2022/08/21 05:45:47;;;;;;;0.30;0.30;;;15.60;99.90;;;;;;5052431;28;20041;-77
2022/08/21 05:48:16;;;;;;;0.15;0.15;;;15.60;99.90;;;;;;5051989;28;20090;-78
2022/08/21 05:50:44;;;;;;;0.50;0.50;;;15.60;99.90;;;;;;5058339;28;20048;-77
2022/08/21 05:53:10;;;;;;;0.40;0.40;;;15.70;99.90;;;;;;5055785;28;20091;-80
2022/08/21 05:55:36;;;;;;;0.43;0.43;;;15.70;99.90;;;;;;5052492;28;20449;-75
2022/08/21 05:58:03;;;;;;;0.40;0.40;;;15.80;99.90;;;;;;5042502;28;20081;-79
2022/08/21 06:00:29;;;;;;;0.40;0.40;;;15.80;99.90;;;;;;5050611;28;20063;-76
2022/08/21 06:02:54;;;;;;;;;;;15.90;99.90;;;;;;5058822;28;20111;-82
2022/08/21 06:05:20;;;;;;;0.40;0.40;;;16.00;99.90;;;;;;5053850;28;19916;-78
2022/08/21 06:07:46;;;;;;;0.25;0.25;;;16.00;99.90;;;;;;5072766;28;20391;-77
2022/08/21 06:10:11;;;;;;;;;;;16.00;99.90;;;;;;5023708;28;20076;-82
2022/08/21 06:12:37;;;;;;;0.30;0.30;;;16.10;99.90;;;;;;5051161;28;19947;-82
2022/08/21 06:15:03;;;;;;;;;;;16.10;99.90;;;;;;5056869;28;20045;-79
2022/08/21 06:17:28;;;;;;;0.80;0.80;;;16.20;99.90;;;;;;5050981;28;20015;-76
2022/08/21 06:19:54;;;;;;;;;;;16.30;99.90;;;;;;5056249;28;20036;-78
2022/08/21 06:22:20;;;;;;;0.28;0.28;;;16.30;99.90;;;;;;5052632;28;19991;-78
2022/08/21 06:24:47;;;;;;;0.40;0.40;;;16.40;99.90;;;;;;5052189;28;20033;-76
2022/08/21 06:27:13;;;;;;;0.35;0.35;;;16.50;99.90;;;;;;5050631;28;20044;-81
2022/08/21 06:29:39;;;;;;;1.08;0.55;;;16.60;99.90;;;;;;5060798;28;20029;-75
2022/08/21 06:32:07;;;;;;;;;;;16.70;99.90;;;;;;5051833;28;20045;-76
2022/08/21 06:34:37;;;;;;;0.60;0.60;;;16.80;99.90;;;;;;5051180;28;19921;-78
2022/08/21 06:37:04;;;;;;;0.30;0.30;;;16.80;99.90;;;;;;5050347;28;20060;-77
2022/08/21 06:39:30;;;;;;;0.30;0.30;;;16.90;99.90;;;;;;5070996;28;20123;-80
2022/08/21 06:41:55;;;;;;;0.80;0.70;;;17.00;99.90;;;;;;5061330;28;20072;-77
2022/08/21 06:44:21;;;;;;;0.47;0.47;;;17.10;99.90;;;;;;5058166;28;20044;-78
2022/08/21 06:46:47;;;;;;;0.38;0.38;;;17.10;99.90;;;;;;5039723;28;20045;-78
2022/08/21 06:49:12;;;;;;;;;;;17.20;99.90;;;;;;5051758;28;20087;-77
2022/08/21 06:51:39;;;;;;;0.30;0.30;;;17.30;99.90;;;;;;5030521;28;19917;-78
2022/08/21 06:54:04;;;;;;;0.20;0.20;;;17.40;99.90;;;;;;5050001;28;20028;-81
2022/08/21 06:56:35;;;;;;;0.88;0.88;;;17.50;99.90;;;;;;5051318;28;20072;-78
2022/08/21 06:59:00;;;;;;;0.20;0.20;;;17.70;99.90;;;;;;5055911;28;20075;-80
2022/08/21 07:01:26;;;;;;;;;;;17.80;99.90;;;;;;5049265;28;20088;-78
2022/08/21 07:03:52;;;;;;;0.30;0.30;;;17.90;99.90;;;;;;5049176;28;19920;-78
2022/08/21 07:06:18;;;;;;;;;;;18.00;99.90;;;;;;5048468;28;20036;-76
2022/08/21 07:08:44;;;;;;;0.45;0.45;;;18.10;99.90;;;;;;5053040;28;20351;-76
2022/08/21 07:11:22;;;;;;;0.40;0.40;;;18.20;99.90;;;;;;5035139;28;20497;-75
2022/08/21 07:13:48;;;;;;;1.13;0.60;;;18.20;99.90;;;;;;5039629;28;20162;-77
2022/08/21 07:16:14;;;;;;;0.50;0.50;;;18.30;99.90;;;;;;5051207;28;20049;-77
2022/08/21 07:18:40;;;;;;;0.40;0.40;;;18.30;99.90;;;;;;5047936;28;20044;-74
2022/08/21 07:21:07;;;;;;;;;;;18.40;99.90;;;;;;5034373;28;20055;-77
2022/08/21 07:23:36;;;;;;;0.28;0.28;;;18.40;99.90;;;;;;5049560;28;19921;-76
2022/08/21 07:26:03;;;;;;;0.35;0.35;;;18.50;99.90;;;;;;5071301;28;20102;-75
2022/08/21 07:28:29;;;;;;;0.55;0.50;;;18.70;99.90;;;;;;5045736;28;20040;-80
2022/08/21 07:30:57;;;;;;;;;;;18.80;99.90;;;;;;5050834;28;20483;-79
2022/08/21 07:33:24;;;;;;;0.35;0.35;;;18.90;99.90;;;;;;5047339;28;19916;-76
2022/08/21 07:35:50;;;;;;;0.38;0.38;;;;;;;;;;5050011;28;20041;-75
2022/08/21 07:38:16;;;;;;;0.30;0.30;;;19.10;99.90;;;;;;5050903;28;20061;-77
2022/08/21 07:40:41;;;;;;;;;;;19.20;99.90;;;;;;5049952;28;20505;-75
2022/08/21 07:43:08;;;;;;;0.30;0.30;;;19.20;99.90;;;;;;5049821;28;19916;-75
2022/08/21 07:45:33;;;;;;;0.43;0.43;;;19.40;99.90;;;;;;5049872;28;20063;-75
2022/08/21 07:47:59;;;;;;;;;;;19.40;99.90;;;;;;5033685;28;20057;-78
2022/08/21 07:50:25;;;;;;;0.38;0.38;;;19.50;99.90;;;;;;5046287;28;19920;-78
2022/08/21 07:52:51;;;;;;;0.30;0.30;;;19.50;99.90;;;;;;5039413;28;20040;-76
2022/08/21 07:55:18;;;;;;;;;;;19.60;99.90;;;;;;5052836;28;20041;-76
2022/08/21 07:57:45;;;;;;;0.30;0.30;;;19.70;99.90;;;;;;5023734;28;20285;-78
2022/08/21 08:00:14;;;;;;;0.30;0.30;;;19.70;99.90;;;;;;5045388;28;20041;-79
2022/08/21 08:02:40;;;;;;;0.20;0.20;;;19.80;99.90;;;;;;5043338;28;20098;-78
2022/08/21 08:05:10;;;;;;;0.30;0.30;;;19.90;99.90;;;;;;5032859;28;20127;-76
2022/08/21 08:07:36;;;;;;;0.47;0.47;;;19.90;99.90;;;;;;5032230;28;20083;-80
2022/08/21 08:10:04;;;;;;;0.73;0.50;;;20.00;99.90;;;;;;5044157;28;20039;-79
2022/08/21 08:12:30;;;;;;;0.30;0.30;;;20.00;99.90;;;;;;5049567;28;20033;-78
2022/08/21 08:15:00;;;;;;;0.40;0.40;;;20.10;99.90;;;;;;5047825;28;20055;-77
2022/08/21 08:17:26;;;;;;;0.40;0.40;;;20.10;99.90;;;;;;5047383;28;20045;-78
2022/08/21 08:19:53;;;;;;;0.20;0.20;;;20.20;99.90;;;;;;5045002;28;20123;-76
2022/08/21 08:22:23;;;;;;;0.35;0.35;;;20.30;99.90;;;;;;5030990;28;20055;-79
2022/08/21 08:24:50;;;;;;;0.40;0.40;;;20.50;99.90;;;;;;5049488;28;20037;-80
2022/08/21 08:27:17;;;;;;;0.52;0.45;;;20.50;99.90;;;;;;5048896;28;20389;-79
2022/08/21 08:29:44;;;;;;;0.47;0.47;;;20.60;99.90;;;;;;5032856;28;20056;-80
2022/08/21 08:32:10;;;;;;;3.20;1.10;;;20.70;99.90;;;;;;5045882;28;20033;-79
2022/08/21 08:34:37;;;;;;;0.30;0.30;;;20.70;99.90;;;;;;5034951;28;20087;-80
2022/08/21 08:37:04;;;;;;;0.40;0.30;;;20.80;99.90;;;;;;5040200;28;20067;-80
2022/08/21 08:39:30;;;;;;;2.38;0.60;;;20.80;99.90;;;;;;5039084;28;20061;-80
2022/08/21 08:42:15;;;;;;;0.30;0.30;;;20.90;99.90;;;;;;5039037;28;20577;-81
2022/08/21 08:44:45;;;;;;;0.40;0.40;;;21.10;99.90;;;;;;5020513;28;20207;-77
2022/08/21 08:47:13;;;;;;;0.28;0.28;;;;;;;;;;5001800;28;20041;-74
2022/08/21 08:50:13;;;;;;;0.30;0.30;;;21.30;99.90;;;;;;5020354;28;20513;-75
2022/08/21 08:52:48;;;;;;;0.30;0.30;;;21.40;99.90;;;;;;5023759;28;20376;-76
2022/08/21 08:55:32;;;;;;;0.22;0.22;;;21.40;99.90;;;;;;5032084;28;20072;-76
2022/08/21 08:57:57;;;;;;;0.75;0.75;;;21.40;99.90;;;;;;5045769;28;20055;-77
2022/08/21 09:00:24;;;;;;;0.30;0.30;;;21.40;99.90;;;;;;5043778;28;20478;-77
2022/08/21 09:02:54;;;;;;;0.20;0.20;;;21.40;99.90;;;;;;5036000;28;20033;-77
2022/08/21 09:05:26;;;;;;;0.57;0.57;;;21.50;99.90;;;;;;5040482;28;20073;-75
2022/08/21 09:08:04;;;;;;;0.60;0.55;;;21.60;99.90;;;;;;5039481;28;20045;-76
2022/08/21 09:10:53;;;;;;;0.20;0.20;;;21.80;99.90;;;;;;5027315;28;20037;-75
2022/08/21 09:13:27;;;;;;;0.30;0.30;;;21.90;99.90;;;;;;4999768;28;20034;-76
2022/08/21 09:16:21;;;;;;;0.30;0.30;;;22.00;99.90;;;;;;5020548;28;20372;-76
2022/08/21 09:19:16;;;;;;;1.00;1.00;;;21.90;99.90;;;;;;5019664;28;20506;-77
2022/08/21 09:21:59;;;;;;;0.40;0.40;;;21.90;99.90;;;;;;5022531;28;20049;-77
2022/08/21 09:24:49;;;;;;;0.20;0.20;;;21.90;99.90;;;;;;5022436;28;20071;-77
2022/08/21 09:27:17;;;;;;;0.40;0.40;;;21.80;99.90;;;;;;5022831;28;20056;-76
2022/08/21 09:29:50;;;;;;;0.50;0.50;;;21.70;99.90;;;;;;5020870;28;20098;-76
2022/08/21 09:32:26;;;;;;;0.20;0.20;;;21.60;99.90;;;;;;5013585;28;20041;-78
2022/08/21 09:34:56;;;;;;;0.30;0.30;;;21.40;99.90;;;;;;5022374;28;20613;-76
2022/08/21 09:37:21;;;;;;;0.60;0.60;;;21.20;99.90;;;;;;5020950;28;20057;-76
2022/08/21 09:39:47;;;;;;;0.40;0.40;;;21.20;99.90;;;;;;5027174;28;20178;-75
2022/08/21 09:42:20;;;;;;;;;;;21.50;99.90;;;;;;5046946;28;20075;-75
2022/08/21 09:44:46;;;;;;;0.30;0.30;;;21.80;99.90;;;;;;5052984;28;20026;-77
2022/08/21 09:47:13;;;;;;;0.52;0.52;;;22.10;99.90;;;;;;5060013;28;20044;-77
2022/08/21 09:49:40;;;;;;;0.25;0.25;;;22.30;99.90;;;;;;5042103;28;20037;-78
2022/08/21 09:52:26;;;;;;;0.38;0.38;;;22.30;99.90;;;;;;5047717;28;20072;-77
2022/08/21 09:54:55;;;;;;;0.17;0.17;;;22.10;99.90;;;;;;5039040;28;20575;-76
2022/08/21 09:57:40;;;;;;;0.40;0.40;;;22.00;99.90;;;;;;5041601;28;20051;-76
2022/08/21 10:00:26;;;;;;;0.63;0.63;;;22.10;99.90;;;;;;5013219;28;20766;-78
2022/08/21 10:02:52;;;;;;;0.10;0.10;;;22.30;99.90;;;;;;5018093;28;20266;-77
2022/08/21 10:05:22;;;;;;;0.32;0.32;;;22.50;99.90;;;;;;5023209;28;20046;-77
2022/08/21 10:07:49;;;;;;;0.30;0.30;;;22.60;99.90;;;;;;5044806;28;20064;-78
2022/08/21 10:10:19;;;;;;;0.40;0.40;;;22.90;99.90;;;;;;5038279;28;20045;-76
2022/08/21 10:13:06;;;;;;;0.40;0.40;;;23.10;99.90;;;;;;5048977;28;20041;-75
2022/08/21 10:15:40;;;;;;;0.40;0.40;;;23.20;99.90;;;;;;5036500;28;20372;-76
2022/08/21 10:18:30;;;;;;;0.30;0.30;;;23.30;99.90;;;;;;5002156;28;20049;-76
2022/08/21 10:21:04;;;;;;;0.32;0.30;;;23.40;99.90;;;;;;5038369;28;20059;-74
2022/08/21 10:24:08;;;;;;;0.20;0.20;;;23.70;99.90;;;;;;5048615;28;20037;-78
2022/08/21 10:26:58;;;;;;;0.30;0.30;;;23.90;99.90;;;;;;5046837;28;20132;-75
2022/08/21 10:29:43;;;;;;;0.32;0.32;;;;;;;;;;5048743;28;20127;-74
2022/08/21 10:32:09;;;;;;;0.40;0.38;;;;;;;;;;5052745;28;20041;-74
2022/08/21 10:34:39;;;;;;;0.28;0.28;;;;;;;;;;5048704;28;20110;-76
2022/08/21 10:37:14;;;;;;;0.55;0.30;;;;;;;;;;5031205;28;20071;-76
2022/08/21 10:40:00;;;;;;;0.20;0.20;;;;;;;;;;5051573;28;20094;-77
2022/08/21 10:42:38;;;;;;;0.55;0.55;;;;;;;;;;5050933;28;20041;-74
2022/08/21 10:45:15;;;;;;;1.35;0.47;;;;;;;;;;5048510;28;20091;-75
2022/08/21 10:47:49;;;;;;;0.20;0.20;;;;;;;;;;5045754;28;20059;-75
2022/08/21 10:50:34;;;;;;;0.20;0.20;;;;;;;;;;5047475;28;20473;-75
2022/08/21 10:53:15;;;;;;;0.40;0.40;;;;;;;;;;5056380;28;20037;-75
2022/08/21 10:55:47;;;;;;;0.30;0.30;;;;;;;;;;5046854;28;20041;-75
2022/08/21 10:58:34;;;;;;;0.98;0.98;;;;;;;;;;5039436;28;20098;-75
2022/08/21 11:01:19;;;;;;;0.40;0.40;;;;;;;;;;5043147;28;20529;-76
2022/08/21 11:03:46;;;;;;;0.60;0.60;;;;;;;;;;5033893;28;20040;-74
2022/08/21 11:06:14;;;;;;;0.20;0.20;;;;;;;;;;5048925;28;20133;-75
2022/08/21 11:08:43;;;;;;;0.80;0.80;;;;;;;;;;5045546;28;20678;-75
2022/08/21 11:11:15;;;;;;;0.45;0.45;;;;;;;;;;5047397;28;20469;-76
2022/08/21 11:13:53;;;;;;;0.28;0.28;;;;;;;;;;5046098;28;20053;-75
2022/08/21 11:16:37;;;;;;;0.70;0.70;;;;;;;;;;5047241;28;20065;-75
2022/08/21 11:19:22;;;;;;;0.40;0.40;;;;;;;;;;5045311;28;20045;-74
2022/08/21 11:22:00;;;;;;;0.20;0.20;;;;;;;;;;5043630;28;20049;-75
2022/08/21 11:24:34;;;;;;;0.30;0.30;;;;;;;;;;5039694;28;20155;-75
2022/08/21 11:27:23;;;;;;;0.57;0.57;;;;;;;;;;5058574;28;20130;-75
2022/08/21 11:29:53;;;;;;;0.57;0.57;;;;;;;;;;5045811;28;20044;-75
2022/08/21 11:32:38;;;;;;;0.40;0.40;;;;;;;;;;5056492;28;20049;-75
2022/08/21 11:35:13;;;;;;;0.30;0.30;;;;;;;;;;5061256;28;20040;-75
2022/08/21 11:37:48;;;;;;;0.38;0.38;;;;;;;;;;5045871;28;20060;-74
2022/08/21 11:40:28;;;;;;;0.88;0.88;;;;;;;;;;5047009;28;20414;-75
2022/08/21 11:42:55;;;;;;;0.45;0.43;;;;;;;;;;5030195;28;20059;-74
2022/08/21 11:45:41;;;;;;;2.60;1.13;;;;;;;;;;5045825;28;20052;-75
2022/08/21 11:48:10;;;;;;;0.32;0.32;;;;;;;;;;5043359;28;20067;-74
2022/08/21 11:50:37;;;;;;;2.85;0.32;;;;;;;;;;5043944;28;20427;-75
2022/08/21 11:53:13;;;;;;;0.25;0.25;;;;;;;;;;5046553;28;20091;-75
2022/08/21 11:55:46;;;;;;;0.87;0.60;;;;;;;;;;5039300;28;20077;-75
2022/08/21 11:58:19;;;;;;;0.28;0.28;;;;;;;;;;5027763;28;20051;-74
2022/08/21 12:01:08;;;;;;;0.10;0.10;;;;;;;;;;5046075;28;20486;-75
2022/08/21 12:03:36;;;;;;;0.30;0.30;;;;;;;;;;5022429;28;20439;-75
2022/08/21 12:06:07;;;;;;;0.28;0.28;;;;;;;;;;5053053;28;20075;-75
2022/08/21 12:08:56;;;;;;;0.20;0.20;;;;;;;;;;5030862;28;20080;-75
2022/08/21 12:11:25;;;;;;;0.65;0.65;;;;;;;;;;5038436;28;20156;-74
2022/08/21 12:13:57;;;;;;;0.30;0.25;;;;;;;;;;5045859;28;20152;-75
2022/08/21 12:16:31;;;;;;;0.30;0.30;;;;;;;;;;5028189;28;20090;-75
2022/08/21 12:19:15;;;;;;;0.30;0.30;;;;;;;;;;5044922;28;20053;-76
2022/08/21 12:22:00;;;;;;;0.40;0.40;;;;;;;;;;5026297;28;20495;-75
2022/08/21 12:24:26;;;;;;;0.35;0.35;;;;;;;;;;5047173;28;20120;-75
2022/08/21 12:26:55;;;;;;;0.20;0.20;;;;;;;;;;5045157;28;20472;-75
2022/08/21 12:29:27;;;;;;;0.28;0.28;;;;;;;;;;5047341;28;20044;-76
2022/08/21 12:32:05;;;;;;;0.50;0.50;;;;;;;;;;5027090;28;20429;-76
2022/08/21 12:34:37;;;;;;;0.43;0.43;;;;;;;;;;5045002;28;20124;-75
2022/08/21 12:37:05;;;;;;;1.55;0.95;;;;;;;;;;5044747;28;20066;-75
2022/08/21 12:39:32;;;;;;;0.13;0.13;;;;;;;;;;5052464;28;20047;-75
2022/08/21 12:42:00;;;;;;;0.38;0.35;;;;;;;;;;5043214;28;20048;-74
2022/08/21 12:44:34;;;;;;;0.50;0.50;;;;;;;;;;5043704;28;20095;-76
2022/08/21 12:47:03;;;;;;;0.47;0.30;;;;;;;;;;5046273;28;20124;-75
2022/08/21 12:49:33;;;;;;;0.25;0.25;;;;;;;;;;5045663;28;20549;-75
2022/08/21 12:52:04;;;;;;;0.40;0.40;;;;;;;;;;5046721;28;20047;-75
2022/08/21 12:54:32;;;;;;;0.30;0.30;;;;;;;;;;5043123;28;20044;-74
2022/08/21 12:57:00;;;;;;;0.20;0.20;;;;;;;;;;5054904;28;20064;-76
2022/08/21 12:59:27;;;;;;;0.50;0.50;;;;;;;;;;5044469;28;20051;-74
2022/08/21 13:01:54;;;;;;;0.30;0.30;;;;;;;;;;5046143;28;20529;-76
2022/08/21 13:04:23;;;;;;;0.30;0.30;;;;;;;;;;5034180;28;20053;-74
2022/08/21 13:06:54;;;;;;;0.95;0.95;;;;;;;;;;5035179;28;20041;-75
2022/08/21 13:09:31;;;;;;;0.30;0.30;;;;;;;;;;5043079;28;20285;-74
2022/08/21 13:11:57;;;;;;;;;;;;;;;;;;5059560;28;20033;-75
2022/08/21 13:14:26;;;;;;;0.30;0.30;;;;;;;;;;5048362;28;19920;-75
2022/08/21 13:16:56;;;;;;;2.35;1.13;;;;;;;;;;5044458;28;20037;-75
2022/08/21 13:19:23;;;;;;;0.30;0.30;;;;;;;;;;5041679;28;20033;-75
2022/08/21 13:21:50;;;;;;;0.20;0.20;;;;;;;;;;5046380;28;20420;-75
2022/08/21 13:24:21;;;;;;;1.05;0.95;;;;;;;;;;5046758;28;20049;-75
2022/08/21 13:26:47;;;;;;;1.35;0.32;;;;;;;;;;5044880;28;20229;-75
2022/08/21 13:29:15;;;;;;;0.20;0.20;;;;;;;;;;5046433;28;20040;-75
2022/08/21 13:31:50;;;;;;;0.20;0.20;;;;;;;;;;5049103;28;20049;-75